sensor_id;sensor_type;location;lat;lon;timestamp;P1;durP1;ratioP1;P2;durP2;ratioP2
65315;SDS011;51920;53.952;10.292;2022-12-11T00:01:53;16.02;;;7.20;;
65315;SDS011;51920;53.952;10.292;2022-12-11T00:04:18;18.77;;;6.87;;
65315;SDS011;51920;53.952;10.292;2022-12-11T00:06:44;16.53;;;6.73;;
65315;SDS011;51920;53.952;10.292;2022-12-11T00:09:09;15.27;;;6.73;;
65315;SDS011;51920;53.952;10.292;2022-12-11T00:11:35;19.25;;;7.90;;
65315;SDS011;51920;53.952;10.292;2022-12-11T00:14:01;19.70;;;7.03;;
65315;SDS011;51920;53.952;10.292;2022-12-11T00:16:26;14.25;;;6.70;;
65315;SDS011;51920;53.952;10.292;2022-12-11T00:18:52;18.37;;;7.50;;
65315;SDS011;51920;53.952;10.292;2022-12-11T00:21:17;20.40;;;8.40;;
65315;SDS011;51920;53.952;10.292;2022-12-11T00:23:42;20.47;;;7.97;;
65315;SDS011;51920;53.952;10.292;2022-12-11T00:26:09;18.58;;;7.45;;
65315;SDS011;51920;53.952;10.292;2022-12-11T00:28:38;20.87;;;7.23;;
65315;SDS011;51920;53.952;10.292;2022-12-11T00:31:04;18.48;;;7.78;;
65315;SDS011;51920;53.952;10.292;2022-12-11T00:33:31;20.30;;;7.75;;
65315;SDS011;51920;53.952;10.292;2022-12-11T00:35:56;18.97;;;7.30;;
65315;SDS011;51920;53.952;10.292;2022-12-11T00:38:21;17.93;;;7.57;;
65315;SDS011;51920;53.952;10.292;2022-12-11T00:40:48;18.02;;;7.78;;
65315;SDS011;51920;53.952;10.292;2022-12-11T00:43:15;18.00;;;7.05;;
65315;SDS011;51920;53.952;10.292;2022-12-11T00:45:41;17.67;;;7.20;;
65315;SDS011;51920;53.952;10.292;2022-12-11T00:48:10;18.13;;;7.90;;
65315;SDS011;51920;53.952;10.292;2022-12-11T00:50:36;18.33;;;8.03;;
65315;SDS011;51920;53.952;10.292;2022-12-11T00:53:03;18.90;;;7.70;;
65315;SDS011;51920;53.952;10.292;2022-12-11T00:55:29;18.50;;;7.32;;
65315;SDS011;51920;53.952;10.292;2022-12-11T00:57:55;18.23;;;8.02;;
65315;SDS011;51920;53.952;10.292;2022-12-11T01:00:21;17.55;;;6.97;;
65315;SDS011;51920;53.952;10.292;2022-12-11T01:02:47;20.27;;;7.67;;
65315;SDS011;51920;53.952;10.292;2022-12-11T01:05:13;18.48;;;7.25;;
65315;SDS011;51920;53.952;10.292;2022-12-11T01:07:38;19.73;;;8.50;;
65315;SDS011;51920;53.952;10.292;2022-12-11T01:10:04;19.67;;;8.23;;
65315;SDS011;51920;53.952;10.292;2022-12-11T01:12:49;19.67;;;7.73;;
65315;SDS011;51920;53.952;10.292;2022-12-11T01:15:15;21.38;;;8.32;;
65315;SDS011;51920;53.952;10.292;2022-12-11T01:17:41;20.77;;;8.40;;
65315;SDS011;51920;53.952;10.292;2022-12-11T01:20:06;19.53;;;8.23;;
65315;SDS011;51920;53.952;10.292;2022-12-11T01:22:32;18.57;;;8.30;;
65315;SDS011;51920;53.952;10.292;2022-12-11T01:24:57;18.50;;;7.33;;
65315;SDS011;51920;53.952;10.292;2022-12-11T01:27:23;18.90;;;7.67;;
65315;SDS011;51920;53.952;10.292;2022-12-11T01:29:48;19.30;;;7.77;;
65315;SDS011;51920;53.952;10.292;2022-12-11T01:32:14;18.85;;;7.97;;
65315;SDS011;51920;53.952;10.292;2022-12-11T01:34:39;18.90;;;7.47;;
65315;SDS011;51920;53.952;10.292;2022-12-11T01:37:05;21.83;;;8.07;;
65315;SDS011;51920;53.952;10.292;2022-12-11T01:39:30;20.30;;;7.78;;
65315;SDS011;51920;53.952;10.292;2022-12-11T01:41:56;21.30;;;8.00;;
65315;SDS011;51920;53.952;10.292;2022-12-11T01:46:48;19.97;;;8.30;;
65315;SDS011;51920;53.952;10.292;2022-12-11T01:49:14;20.43;;;7.83;;
65315;SDS011;51920;53.952;10.292;2022-12-11T01:51:47;20.38;;;8.27;;
65315;SDS011;51920;53.952;10.292;2022-12-11T01:54:18;20.27;;;8.02;;
65315;SDS011;51920;53.952;10.292;2022-12-11T01:56:46;21.77;;;8.73;;
65315;SDS011;51920;53.952;10.292;2022-12-11T01:59:14;18.83;;;7.57;;
65315;SDS011;51920;53.952;10.292;2022-12-11T02:01:52;20.17;;;7.85;;
65315;SDS011;51920;53.952;10.292;2022-12-11T02:04:27;21.58;;;8.77;;
65315;SDS011;51920;53.952;10.292;2022-12-11T02:06:54;22.88;;;9.18;;
65315;SDS011;51920;53.952;10.292;2022-12-11T02:09:23;24.07;;;9.67;;
65315;SDS011;51920;53.952;10.292;2022-12-11T02:17:21;21.67;;;8.88;;
65315;SDS011;51920;53.952;10.292;2022-12-11T02:30:49;19.90;;;8.30;;
65315;SDS011;51920;53.952;10.292;2022-12-11T02:33:20;23.30;;;9.33;;
65315;SDS011;51920;53.952;10.292;2022-12-11T02:35:47;21.40;;;8.85;;
65315;SDS011;51920;53.952;10.292;2022-12-11T02:38:20;24.25;;;9.20;;
65315;SDS011;51920;53.952;10.292;2022-12-11T02:40:51;19.30;;;8.38;;
65315;SDS011;51920;53.952;10.292;2022-12-11T02:43:19;21.65;;;9.18;;
65315;SDS011;51920;53.952;10.292;2022-12-11T02:45:47;23.17;;;9.10;;
65315;SDS011;51920;53.952;10.292;2022-12-11T02:48:14;23.92;;;9.40;;
65315;SDS011;51920;53.952;10.292;2022-12-11T02:50:43;23.35;;;8.70;;
65315;SDS011;51920;53.952;10.292;2022-12-11T02:53:11;20.33;;;7.78;;
65315;SDS011;51920;53.952;10.292;2022-12-11T02:55:40;19.63;;;8.45;;
65315;SDS011;51920;53.952;10.292;2022-12-11T02:58:08;20.13;;;7.80;;
65315;SDS011;51920;53.952;10.292;2022-12-11T03:00:38;21.80;;;7.95;;
65315;SDS011;51920;53.952;10.292;2022-12-11T03:03:03;23.15;;;9.07;;
65315;SDS011;51920;53.952;10.292;2022-12-11T03:05:29;21.10;;;8.40;;
65315;SDS011;51920;53.952;10.292;2022-12-11T03:07:55;23.73;;;8.20;;
65315;SDS011;51920;53.952;10.292;2022-12-11T03:10:20;20.33;;;7.77;;
65315;SDS011;51920;53.952;10.292;2022-12-11T03:12:47;20.00;;;8.03;;
65315;SDS011;51920;53.952;10.292;2022-12-11T03:15:17;20.58;;;7.78;;
65315;SDS011;51920;53.952;10.292;2022-12-11T03:23:03;23.27;;;8.27;;
65315;SDS011;51920;53.952;10.292;2022-12-11T03:25:45;21.23;;;7.90;;
65315;SDS011;51920;53.952;10.292;2022-12-11T03:30:56;19.98;;;7.80;;
65315;SDS011;51920;53.952;10.292;2022-12-11T03:33:26;20.50;;;8.05;;
65315;SDS011;51920;53.952;10.292;2022-12-11T03:35:59;21.77;;;8.37;;
65315;SDS011;51920;53.952;10.292;2022-12-11T03:38:30;20.77;;;7.63;;
65315;SDS011;51920;53.952;10.292;2022-12-11T03:41:00;22.90;;;8.25;;
65315;SDS011;51920;53.952;10.292;2022-12-11T03:43:28;19.55;;;7.43;;
65315;SDS011;51920;53.952;10.292;2022-12-11T03:45:56;22.30;;;9.00;;
65315;SDS011;51920;53.952;10.292;2022-12-11T03:48:24;19.33;;;8.27;;
65315;SDS011;51920;53.952;10.292;2022-12-11T03:50:54;20.85;;;7.88;;
65315;SDS011;51920;53.952;10.292;2022-12-11T03:53:21;22.67;;;8.45;;
65315;SDS011;51920;53.952;10.292;2022-12-11T03:55:47;22.27;;;8.35;;
65315;SDS011;51920;53.952;10.292;2022-12-11T03:58:14;19.85;;;8.02;;
65315;SDS011;51920;53.952;10.292;2022-12-11T04:00:39;20.73;;;8.23;;
65315;SDS011;51920;53.952;10.292;2022-12-11T04:03:04;19.00;;;7.80;;
65315;SDS011;51920;53.952;10.292;2022-12-11T04:05:40;20.65;;;7.97;;
65315;SDS011;51920;53.952;10.292;2022-12-11T04:08:07;22.33;;;8.53;;
65315;SDS011;51920;53.952;10.292;2022-12-11T04:10:33;21.48;;;8.13;;
65315;SDS011;51920;53.952;10.292;2022-12-11T04:12:58;21.20;;;8.50;;
65315;SDS011;51920;53.952;10.292;2022-12-11T04:15:24;21.90;;;7.97;;
65315;SDS011;51920;53.952;10.292;2022-12-11T04:17:49;18.35;;;7.47;;
65315;SDS011;51920;53.952;10.292;2022-12-11T04:20:33;18.40;;;7.57;;
65315;SDS011;51920;53.952;10.292;2022-12-11T04:23:17;19.08;;;7.55;;
65315;SDS011;51920;53.952;10.292;2022-12-11T04:26:04;19.23;;;8.15;;
65315;SDS011;51920;53.952;10.292;2022-12-11T04:28:31;20.33;;;7.78;;
65315;SDS011;51920;53.952;10.292;2022-12-11T04:30:56;18.20;;;7.13;;
65315;SDS011;51920;53.952;10.292;2022-12-11T04:33:22;17.57;;;7.70;;
65315;SDS011;51920;53.952;10.292;2022-12-11T04:35:47;18.03;;;6.87;;
65315;SDS011;51920;53.952;10.292;2022-12-11T04:38:13;17.67;;;6.80;;
65315;SDS011;51920;53.952;10.292;2022-12-11T04:40:38;17.43;;;7.33;;
65315;SDS011;51920;53.952;10.292;2022-12-11T04:43:03;17.63;;;7.20;;
65315;SDS011;51920;53.952;10.292;2022-12-11T04:45:29;16.93;;;6.70;;
65315;SDS011;51920;53.952;10.292;2022-12-11T04:47:54;19.20;;;7.53;;
65315;SDS011;51920;53.952;10.292;2022-12-11T04:50:19;18.13;;;7.97;;
65315;SDS011;51920;53.952;10.292;2022-12-11T04:52:45;15.82;;;6.90;;
65315;SDS011;51920;53.952;10.292;2022-12-11T04:55:10;15.93;;;7.00;;
65315;SDS011;51920;53.952;10.292;2022-12-11T04:57:36;16.50;;;6.60;;
65315;SDS011;51920;53.952;10.292;2022-12-11T05:00:06;15.57;;;6.80;;
65315;SDS011;51920;53.952;10.292;2022-12-11T05:02:34;18.67;;;7.45;;
65315;SDS011;51920;53.952;10.292;2022-12-11T05:05:01;17.63;;;6.63;;
65315;SDS011;51920;53.952;10.292;2022-12-11T05:07:28;16.10;;;6.32;;
65315;SDS011;51920;53.952;10.292;2022-12-11T05:09:53;16.40;;;6.73;;
65315;SDS011;51920;53.952;10.292;2022-12-11T05:12:19;17.40;;;7.20;;
65315;SDS011;51920;53.952;10.292;2022-12-11T05:14:44;17.93;;;7.17;;
65315;SDS011;51920;53.952;10.292;2022-12-11T05:17:09;16.50;;;6.20;;
65315;SDS011;51920;53.952;10.292;2022-12-11T05:19:35;16.47;;;6.63;;
65315;SDS011;51920;53.952;10.292;2022-12-11T05:22:00;17.67;;;7.80;;
65315;SDS011;51920;53.952;10.292;2022-12-11T05:24:25;17.23;;;6.45;;
65315;SDS011;51920;53.952;10.292;2022-12-11T05:26:51;19.43;;;7.13;;
65315;SDS011;51920;53.952;10.292;2022-12-11T05:29:16;15.03;;;6.70;;
65315;SDS011;51920;53.952;10.292;2022-12-11T05:31:42;19.40;;;7.00;;
65315;SDS011;51920;53.952;10.292;2022-12-11T05:34:07;17.70;;;6.70;;
65315;SDS011;51920;53.952;10.292;2022-12-11T05:36:32;18.23;;;7.13;;
65315;SDS011;51920;53.952;10.292;2022-12-11T05:38:58;16.77;;;6.88;;
65315;SDS011;51920;53.952;10.292;2022-12-11T05:41:26;19.98;;;7.60;;
65315;SDS011;51920;53.952;10.292;2022-12-11T05:43:53;18.75;;;8.20;;
65315;SDS011;51920;53.952;10.292;2022-12-11T05:46:23;18.83;;;6.87;;
65315;SDS011;51920;53.952;10.292;2022-12-11T05:48:51;17.67;;;7.68;;
65315;SDS011;51920;53.952;10.292;2022-12-11T05:51:19;17.97;;;6.97;;
65315;SDS011;51920;53.952;10.292;2022-12-11T05:53:46;20.33;;;7.55;;
65315;SDS011;51920;53.952;10.292;2022-12-11T05:56:26;20.17;;;7.43;;
65315;SDS011;51920;53.952;10.292;2022-12-11T05:58:54;19.77;;;7.63;;
65315;SDS011;51920;53.952;10.292;2022-12-11T06:01:22;20.13;;;7.57;;
65315;SDS011;51920;53.952;10.292;2022-12-11T06:03:50;17.90;;;7.30;;
65315;SDS011;51920;53.952;10.292;2022-12-11T06:06:15;23.00;;;8.10;;
65315;SDS011;51920;53.952;10.292;2022-12-11T06:08:41;17.37;;;7.47;;
65315;SDS011;51920;53.952;10.292;2022-12-11T06:11:07;21.00;;;8.13;;
65315;SDS011;51920;53.952;10.292;2022-12-11T06:13:32;19.10;;;7.68;;
65315;SDS011;51920;53.952;10.292;2022-12-11T06:15:59;19.60;;;7.07;;
65315;SDS011;51920;53.952;10.292;2022-12-11T06:18:27;20.53;;;7.87;;
65315;SDS011;51920;53.952;10.292;2022-12-11T06:20:53;21.58;;;8.30;;
65315;SDS011;51920;53.952;10.292;2022-12-11T06:23:18;19.57;;;6.70;;
65315;SDS011;51920;53.952;10.292;2022-12-11T06:25:44;20.60;;;7.73;;
65315;SDS011;51920;53.952;10.292;2022-12-11T06:28:09;21.70;;;8.00;;
65315;SDS011;51920;53.952;10.292;2022-12-11T06:30:35;22.15;;;8.35;;
65315;SDS011;51920;53.952;10.292;2022-12-11T06:33:00;20.00;;;7.83;;
65315;SDS011;51920;53.952;10.292;2022-12-11T06:35:26;19.43;;;8.00;;
65315;SDS011;51920;53.952;10.292;2022-12-11T06:37:51;19.87;;;7.47;;
65315;SDS011;51920;53.952;10.292;2022-12-11T06:40:17;17.27;;;6.80;;
65315;SDS011;51920;53.952;10.292;2022-12-11T06:42:42;17.33;;;6.97;;
65315;SDS011;51920;53.952;10.292;2022-12-11T06:45:07;16.23;;;6.93;;
65315;SDS011;51920;53.952;10.292;2022-12-11T06:47:33;20.20;;;7.25;;
65315;SDS011;51920;53.952;10.292;2022-12-11T06:49:59;15.80;;;6.33;;
65315;SDS011;51920;53.952;10.292;2022-12-11T06:52:26;19.02;;;7.10;;
65315;SDS011;51920;53.952;10.292;2022-12-11T06:54:52;19.70;;;7.67;;
65315;SDS011;51920;53.952;10.292;2022-12-11T06:57:17;21.05;;;8.07;;
65315;SDS011;51920;53.952;10.292;2022-12-11T06:59:43;19.67;;;7.40;;
65315;SDS011;51920;53.952;10.292;2022-12-11T07:02:13;19.70;;;7.32;;
65315;SDS011;51920;53.952;10.292;2022-12-11T07:04:39;20.23;;;7.97;;
65315;SDS011;51920;53.952;10.292;2022-12-11T07:07:05;19.92;;;8.70;;
65315;SDS011;51920;53.952;10.292;2022-12-11T07:09:31;24.77;;;8.88;;
65315;SDS011;51920;53.952;10.292;2022-12-11T07:11:57;25.63;;;9.00;;
65315;SDS011;51920;53.952;10.292;2022-12-11T07:14:22;19.67;;;8.13;;
65315;SDS011;51920;53.952;10.292;2022-12-11T07:16:48;24.33;;;9.32;;
65315;SDS011;51920;53.952;10.292;2022-12-11T07:19:13;22.83;;;9.10;;
65315;SDS011;51920;53.952;10.292;2022-12-11T07:21:39;22.33;;;8.10;;
65315;SDS011;51920;53.952;10.292;2022-12-11T07:24:04;27.40;;;9.27;;
65315;SDS011;51920;53.952;10.292;2022-12-11T07:26:30;23.13;;;9.00;;
65315;SDS011;51920;53.952;10.292;2022-12-11T07:28:56;25.83;;;9.90;;
65315;SDS011;51920;53.952;10.292;2022-12-11T07:31:23;25.58;;;8.82;;
65315;SDS011;51920;53.952;10.292;2022-12-11T07:33:55;23.65;;;8.88;;
65315;SDS011;51920;53.952;10.292;2022-12-11T07:36:22;24.57;;;8.93;;
65315;SDS011;51920;53.952;10.292;2022-12-11T07:38:49;20.30;;;7.85;;
65315;SDS011;51920;53.952;10.292;2022-12-11T07:41:14;21.83;;;9.10;;
65315;SDS011;51920;53.952;10.292;2022-12-11T07:43:46;25.40;;;8.98;;
65315;SDS011;51920;53.952;10.292;2022-12-11T07:46:13;23.97;;;8.77;;
65315;SDS011;51920;53.952;10.292;2022-12-11T07:48:41;23.38;;;8.93;;
65315;SDS011;51920;53.952;10.292;2022-12-11T07:53:39;21.77;;;8.27;;
65315;SDS011;51920;53.952;10.292;2022-12-11T07:56:05;24.25;;;8.80;;
65315;SDS011;51920;53.952;10.292;2022-12-11T07:58:31;24.42;;;8.60;;
65315;SDS011;51920;53.952;10.292;2022-12-11T08:00:57;26.27;;;9.63;;
65315;SDS011;51920;53.952;10.292;2022-12-11T08:03:23;24.63;;;8.50;;
65315;SDS011;51920;53.952;10.292;2022-12-11T08:05:49;21.15;;;8.45;;
65315;SDS011;51920;53.952;10.292;2022-12-11T08:08:16;24.00;;;8.87;;
65315;SDS011;51920;53.952;10.292;2022-12-11T08:10:41;23.85;;;8.25;;
65315;SDS011;51920;53.952;10.292;2022-12-11T08:13:08;21.42;;;8.23;;
65315;SDS011;51920;53.952;10.292;2022-12-11T08:15:34;22.57;;;7.67;;
65315;SDS011;51920;53.952;10.292;2022-12-11T08:18:00;19.08;;;8.00;;
65315;SDS011;51920;53.952;10.292;2022-12-11T08:20:25;20.85;;;8.45;;
65315;SDS011;51920;53.952;10.292;2022-12-11T08:22:51;23.17;;;8.40;;
65315;SDS011;51920;53.952;10.292;2022-12-11T08:25:16;20.60;;;8.10;;
65315;SDS011;51920;53.952;10.292;2022-12-11T08:27:42;22.87;;;8.87;;
65315;SDS011;51920;53.952;10.292;2022-12-11T08:30:07;23.17;;;8.87;;
65315;SDS011;51920;53.952;10.292;2022-12-11T08:32:33;23.13;;;9.63;;
65315;SDS011;51920;53.952;10.292;2022-12-11T08:35:02;23.87;;;9.70;;
65315;SDS011;51920;53.952;10.292;2022-12-11T08:37:27;25.55;;;10.45;;
65315;SDS011;51920;53.952;10.292;2022-12-11T08:39:53;27.20;;;10.90;;
65315;SDS011;51920;53.952;10.292;2022-12-11T08:42:19;22.53;;;10.47;;
65315;SDS011;51920;53.952;10.292;2022-12-11T08:44:45;23.60;;;10.25;;
65315;SDS011;51920;53.952;10.292;2022-12-11T08:47:10;34.77;;;13.10;;
65315;SDS011;51920;53.952;10.292;2022-12-11T08:49:35;27.83;;;11.57;;
65315;SDS011;51920;53.952;10.292;2022-12-11T08:52:04;29.93;;;11.83;;
65315;SDS011;51920;53.952;10.292;2022-12-11T08:54:29;23.20;;;8.88;;
65315;SDS011;51920;53.952;10.292;2022-12-11T08:56:55;19.63;;;8.87;;
65315;SDS011;51920;53.952;10.292;2022-12-11T08:59:21;25.73;;;10.98;;
65315;SDS011;51920;53.952;10.292;2022-12-11T09:01:46;24.90;;;10.73;;
65315;SDS011;51920;53.952;10.292;2022-12-11T09:04:11;26.30;;;11.40;;
65315;SDS011;51920;53.952;10.292;2022-12-11T09:06:37;23.13;;;9.77;;
65315;SDS011;51920;53.952;10.292;2022-12-11T09:09:02;22.92;;;9.90;;
65315;SDS011;51920;53.952;10.292;2022-12-11T09:11:30;23.23;;;9.93;;
65315;SDS011;51920;53.952;10.292;2022-12-11T09:13:56;22.33;;;9.43;;
65315;SDS011;51920;53.952;10.292;2022-12-11T09:16:23;25.65;;;10.90;;
65315;SDS011;51920;53.952;10.292;2022-12-11T09:18:50;26.27;;;11.40;;
65315;SDS011;51920;53.952;10.292;2022-12-11T09:21:18;24.45;;;11.20;;
65315;SDS011;51920;53.952;10.292;2022-12-11T09:23:45;25.00;;;11.50;;
65315;SDS011;51920;53.952;10.292;2022-12-11T09:26:13;27.43;;;12.77;;
65315;SDS011;51920;53.952;10.292;2022-12-11T09:28:40;29.65;;;12.80;;
65315;SDS011;51920;53.952;10.292;2022-12-11T09:31:07;25.92;;;12.32;;
65315;SDS011;51920;53.952;10.292;2022-12-11T09:33:33;25.60;;;12.07;;
65315;SDS011;51920;53.952;10.292;2022-12-11T09:35:59;39.70;;;17.07;;
65315;SDS011;51920;53.952;10.292;2022-12-11T09:38:25;29.10;;;13.35;;
65315;SDS011;51920;53.952;10.292;2022-12-11T09:40:51;26.27;;;11.40;;
65315;SDS011;51920;53.952;10.292;2022-12-11T09:46:01;25.33;;;11.55;;
65315;SDS011;51920;53.952;10.292;2022-12-11T09:48:31;25.00;;;10.83;;
65315;SDS011;51920;53.952;10.292;2022-12-11T09:50:58;23.52;;;10.52;;
65315;SDS011;51920;53.952;10.292;2022-12-11T09:53:29;26.65;;;11.77;;
65315;SDS011;51920;53.952;10.292;2022-12-11T09:56:03;25.63;;;11.75;;
65315;SDS011;51920;53.952;10.292;2022-12-11T10:06:23;25.13;;;11.57;;
65315;SDS011;51920;53.952;10.292;2022-12-11T10:17:21;25.40;;;11.55;;
65315;SDS011;51920;53.952;10.292;2022-12-11T10:19:52;22.10;;;9.85;;
65315;SDS011;51920;53.952;10.292;2022-12-11T10:22:22;22.35;;;10.10;;
65315;SDS011;51920;53.952;10.292;2022-12-11T10:24:54;23.38;;;10.50;;
65315;SDS011;51920;53.952;10.292;2022-12-11T10:27:23;25.83;;;11.23;;
65315;SDS011;51920;53.952;10.292;2022-12-11T10:30:07;25.77;;;11.52;;
65315;SDS011;51920;53.952;10.292;2022-12-11T10:32:48;21.48;;;9.80;;
65315;SDS011;51920;53.952;10.292;2022-12-11T10:35:25;18.25;;;8.70;;
65315;SDS011;51920;53.952;10.292;2022-12-11T10:38:01;18.85;;;8.55;;
65315;SDS011;51920;53.952;10.292;2022-12-11T10:40:42;19.37;;;8.77;;
65315;SDS011;51920;53.952;10.292;2022-12-11T10:43:10;19.05;;;9.13;;
65315;SDS011;51920;53.952;10.292;2022-12-11T10:45:36;21.15;;;9.50;;
65315;SDS011;51920;53.952;10.292;2022-12-11T10:48:10;18.30;;;8.63;;
65315;SDS011;51920;53.952;10.292;2022-12-11T10:50:37;19.05;;;8.70;;
65315;SDS011;51920;53.952;10.292;2022-12-11T10:53:02;19.17;;;9.10;;
65315;SDS011;51920;53.952;10.292;2022-12-11T10:55:39;18.40;;;8.50;;
65315;SDS011;51920;53.952;10.292;2022-12-11T10:58:14;18.73;;;8.57;;
65315;SDS011;51920;53.952;10.292;2022-12-11T11:00:43;18.15;;;9.38;;
65315;SDS011;51920;53.952;10.292;2022-12-11T11:03:19;19.70;;;8.63;;
65315;SDS011;51920;53.952;10.292;2022-12-11T11:05:47;18.35;;;9.88;;
65315;SDS011;51920;53.952;10.292;2022-12-11T11:08:16;19.50;;;10.83;;
65315;SDS011;51920;53.952;10.292;2022-12-11T11:13:17;20.90;;;10.68;;
65315;SDS011;51920;53.952;10.292;2022-12-11T11:15:45;19.52;;;9.90;;
65315;SDS011;51920;53.952;10.292;2022-12-11T11:18:13;17.57;;;8.53;;
65315;SDS011;51920;53.952;10.292;2022-12-11T11:20:46;17.50;;;8.82;;
65315;SDS011;51920;53.952;10.292;2022-12-11T11:23:13;18.30;;;8.80;;
65315;SDS011;51920;53.952;10.292;2022-12-11T11:25:47;16.45;;;8.50;;
65315;SDS011;51920;53.952;10.292;2022-12-11T11:28:26;16.73;;;8.07;;
65315;SDS011;51920;53.952;10.292;2022-12-11T11:31:01;17.02;;;8.25;;
65315;SDS011;51920;53.952;10.292;2022-12-11T11:33:29;18.92;;;8.57;;
65315;SDS011;51920;53.952;10.292;2022-12-11T11:36:01;17.20;;;7.60;;
65315;SDS011;51920;53.952;10.292;2022-12-11T11:38:30;17.65;;;8.15;;
65315;SDS011;51920;53.952;10.292;2022-12-11T11:41:11;15.63;;;7.37;;
65315;SDS011;51920;53.952;10.292;2022-12-11T11:43:48;14.45;;;7.30;;
65315;SDS011;51920;53.952;10.292;2022-12-11T11:46:36;15.88;;;7.30;;
65315;SDS011;51920;53.952;10.292;2022-12-11T11:49:17;18.33;;;7.53;;
65315;SDS011;51920;53.952;10.292;2022-12-11T11:59:57;20.08;;;8.23;;
65315;SDS011;51920;53.952;10.292;2022-12-11T12:02:37;16.23;;;8.30;;
65315;SDS011;51920;53.952;10.292;2022-12-11T12:05:05;19.30;;;8.88;;
65315;SDS011;51920;53.952;10.292;2022-12-11T12:10:29;17.17;;;8.30;;
65315;SDS011;51920;53.952;10.292;2022-12-11T12:13:05;17.30;;;7.73;;
65315;SDS011;51920;53.952;10.292;2022-12-11T12:15:50;17.85;;;7.50;;
65315;SDS011;51920;53.952;10.292;2022-12-11T12:21:17;15.95;;;7.63;;
65315;SDS011;51920;53.952;10.292;2022-12-11T12:23:55;16.95;;;7.82;;
65315;SDS011;51920;53.952;10.292;2022-12-11T12:26:35;16.03;;;6.77;;
65315;SDS011;51920;53.952;10.292;2022-12-11T12:36:52;21.17;;;9.73;;
65315;SDS011;51920;53.952;10.292;2022-12-11T12:42:01;19.27;;;9.27;;
65315;SDS011;51920;53.952;10.292;2022-12-11T12:44:41;25.23;;;10.95;;
65315;SDS011;51920;53.952;10.292;2022-12-11T12:47:19;26.40;;;11.95;;
65315;SDS011;51920;53.952;10.292;2022-12-11T12:49:49;24.02;;;11.63;;
65315;SDS011;51920;53.952;10.292;2022-12-11T12:52:22;20.77;;;9.23;;
65315;SDS011;51920;53.952;10.292;2022-12-11T12:54:54;21.08;;;9.32;;
65315;SDS011;51920;53.952;10.292;2022-12-11T12:57:41;21.30;;;9.30;;
65315;SDS011;51920;53.952;10.292;2022-12-11T13:00:09;17.83;;;8.43;;
65315;SDS011;51920;53.952;10.292;2022-12-11T13:02:46;20.77;;;8.90;;
65315;SDS011;51920;53.952;10.292;2022-12-11T13:05:32;21.30;;;9.43;;
65315;SDS011;51920;53.952;10.292;2022-12-11T13:08:02;19.33;;;8.63;;
65315;SDS011;51920;53.952;10.292;2022-12-11T13:12:57;23.00;;;10.57;;
65315;SDS011;51920;53.952;10.292;2022-12-11T13:15:37;20.55;;;9.32;;
65315;SDS011;51920;53.952;10.292;2022-12-11T13:26:43;17.52;;;7.70;;
65315;SDS011;51920;53.952;10.292;2022-12-11T13:32:01;18.27;;;8.25;;
65315;SDS011;51920;53.952;10.292;2022-12-11T13:34:51;18.27;;;8.05;;
65315;SDS011;51920;53.952;10.292;2022-12-11T13:37:30;19.75;;;8.45;;
65315;SDS011;51920;53.952;10.292;2022-12-11T13:40:00;19.27;;;8.10;;
65315;SDS011;51920;53.952;10.292;2022-12-11T13:48:32;20.00;;;8.32;;
65315;SDS011;51920;53.952;10.292;2022-12-11T13:51:02;17.48;;;8.13;;
65315;SDS011;51920;53.952;10.292;2022-12-11T13:53:30;20.33;;;8.23;;
65315;SDS011;51920;53.952;10.292;2022-12-11T13:56:06;18.75;;;7.90;;
65315;SDS011;51920;53.952;10.292;2022-12-11T13:58:39;17.45;;;7.63;;
65315;SDS011;51920;53.952;10.292;2022-12-11T14:01:09;21.17;;;8.77;;
65315;SDS011;51920;53.952;10.292;2022-12-11T14:06:17;19.77;;;8.60;;
65315;SDS011;51920;53.952;10.292;2022-12-11T14:08:43;21.83;;;8.23;;
65315;SDS011;51920;53.952;10.292;2022-12-11T14:11:14;18.65;;;7.82;;
65315;SDS011;51920;53.952;10.292;2022-12-11T14:13:47;17.80;;;7.82;;
65315;SDS011;51920;53.952;10.292;2022-12-11T14:16:14;20.00;;;8.60;;
65315;SDS011;51920;53.952;10.292;2022-12-11T14:18:44;18.83;;;8.15;;
65315;SDS011;51920;53.952;10.292;2022-12-11T14:21:16;16.98;;;8.20;;
65315;SDS011;51920;53.952;10.292;2022-12-11T14:23:49;19.80;;;8.55;;
65315;SDS011;51920;53.952;10.292;2022-12-11T14:26:25;15.95;;;7.80;;
65315;SDS011;51920;53.952;10.292;2022-12-11T14:28:55;18.20;;;7.80;;
65315;SDS011;51920;53.952;10.292;2022-12-11T14:31:31;19.77;;;9.05;;
65315;SDS011;51920;53.952;10.292;2022-12-11T14:34:13;23.00;;;10.00;;
65315;SDS011;51920;53.952;10.292;2022-12-11T14:36:41;24.47;;;10.80;;
65315;SDS011;51920;53.952;10.292;2022-12-11T14:42:09;23.45;;;10.75;;
65315;SDS011;51920;53.952;10.292;2022-12-11T14:47:36;24.33;;;11.80;;
65315;SDS011;51920;53.952;10.292;2022-12-11T14:50:25;26.87;;;10.80;;
65315;SDS011;51920;53.952;10.292;2022-12-11T14:53:01;24.83;;;10.98;;
65315;SDS011;51920;53.952;10.292;2022-12-11T14:55:32;27.00;;;11.25;;
65315;SDS011;51920;53.952;10.292;2022-12-11T14:58:04;25.52;;;11.00;;
65315;SDS011;51920;53.952;10.292;2022-12-11T15:00:38;27.23;;;11.80;;
65315;SDS011;51920;53.952;10.292;2022-12-11T15:08:52;35.45;;;14.32;;
65315;SDS011;51920;53.952;10.292;2022-12-11T15:11:18;44.93;;;16.03;;
65315;SDS011;51920;53.952;10.292;2022-12-11T15:13:48;44.63;;;15.95;;
65315;SDS011;51920;53.952;10.292;2022-12-11T15:16:17;38.20;;;14.27;;
65315;SDS011;51920;53.952;10.292;2022-12-11T15:18:46;30.63;;;12.97;;
65315;SDS011;51920;53.952;10.292;2022-12-11T15:21:13;30.02;;;12.40;;
65315;SDS011;51920;53.952;10.292;2022-12-11T15:26:32;30.92;;;12.93;;
65315;SDS011;51920;53.952;10.292;2022-12-11T15:29:01;33.50;;;14.15;;
65315;SDS011;51920;53.952;10.292;2022-12-11T15:31:29;31.17;;;13.77;;
65315;SDS011;51920;53.952;10.292;2022-12-11T15:33:56;32.17;;;14.18;;
65315;SDS011;51920;53.952;10.292;2022-12-11T15:36:23;30.60;;;13.20;;
65315;SDS011;51920;53.952;10.292;2022-12-11T15:38:55;31.13;;;13.13;;
65315;SDS011;51920;53.952;10.292;2022-12-11T15:41:21;29.40;;;12.55;;
65315;SDS011;51920;53.952;10.292;2022-12-11T15:43:49;26.55;;;11.63;;
65315;SDS011;51920;53.952;10.292;2022-12-11T15:46:16;24.85;;;11.40;;
65315;SDS011;51920;53.952;10.292;2022-12-11T15:48:42;28.80;;;12.43;;
65315;SDS011;51920;53.952;10.292;2022-12-11T15:51:13;26.98;;;11.50;;
65315;SDS011;51920;53.952;10.292;2022-12-11T15:53:39;27.70;;;11.68;;
65315;SDS011;51920;53.952;10.292;2022-12-11T15:56:05;30.43;;;14.00;;
65315;SDS011;51920;53.952;10.292;2022-12-11T15:58:30;32.65;;;14.27;;
65315;SDS011;51920;53.952;10.292;2022-12-11T16:00:56;30.00;;;14.03;;
65315;SDS011;51920;53.952;10.292;2022-12-11T16:03:23;30.52;;;14.50;;
65315;SDS011;51920;53.952;10.292;2022-12-11T16:05:49;30.50;;;13.43;;
65315;SDS011;51920;53.952;10.292;2022-12-11T16:08:19;32.07;;;13.70;;
65315;SDS011;51920;53.952;10.292;2022-12-11T16:10:46;28.67;;;12.80;;
65315;SDS011;51920;53.952;10.292;2022-12-11T16:13:12;34.45;;;15.35;;
65315;SDS011;51920;53.952;10.292;2022-12-11T16:15:39;35.38;;;15.38;;
65315;SDS011;51920;53.952;10.292;2022-12-11T16:18:08;45.57;;;18.83;;
65315;SDS011;51920;53.952;10.292;2022-12-11T16:20:36;44.47;;;18.17;;